Rachel, Nevada Weather observations

Data are for observation ending at time listed.
 Day   Time    Ave.   Ave.  Ave.  Vector   Max.   Stn.    Total    Solar   Ave.  
  of    of     Air    Rel.  Wind   Wind    Wind   Baro.  Precip.   Rad.    Soil  
Year   Day     Temp.  Hum.  Speed  Dir.    Gust   Pres.                    Temp. 
2014   (PST)    F      %     mph   deg.    mph     mb.     in.     W/m2     F   
------------------------------------------------------------------------------
 114    0:00   39.6    26    1.9   307      2.9   848.9    0.00       0    54.0
 114    0:10   40.0    25    0.9   306      1.8   848.7    0.00       0    53.9
 114    0:20   41.7    22    0.8   288      2.5   848.8    0.00       0    53.8
 114    0:30   41.9    22    2.8   243      4.4   848.7    0.00       0    53.7
 114    0:40   41.7    22    1.5   240      3.1   848.7    0.00       0    53.6
 114    0:50   41.4    21    0.5   263      2.0   848.6    0.00       0    53.5
 114    1:00   42.0    22    1.8   311      3.1   848.6    0.00       0    53.4
 114    1:10   42.3    22    0.1   311      0.7   848.6    0.00       0    53.3
 114    1:20   42.1    21    1.5   246      4.2   848.7    0.00       0    53.2
 114    1:30   41.9    22    4.3   225      5.8   848.7    0.00       0    53.0
 114    1:40   41.4    24    3.5   243      4.4   848.8    0.00       0    53.0
 114    1:50   41.1    24    2.4   243      3.1   848.8    0.00       0    52.9
 114    2:00   40.8    22    1.2   241      2.1   848.7    0.00       0    52.8
 114    2:10   40.7    22    0.5   241      1.3   848.7    0.00       0    52.5
 114    2:20   40.6    22    0.4   243      1.2   848.7    0.00       0    52.5
 114    2:30   40.6    22    0.8   243      1.4   848.8    0.00       0    52.4
 114    2:40   40.4    24    0.2   244      0.7   848.8    0.00       0    52.4
 114    2:50   39.9    24    0.0     0      0.0   848.5    0.00       0    52.2
 114    3:00   38.8    24    0.8   240      2.0   848.5    0.00       0    52.1
 114    3:10   37.5    24    1.7   235      2.3   848.5    0.00       0    51.7
 114    3:20   37.7    25    1.0   237      2.2   848.5    0.00       0    51.6
 114    3:30   37.6    26    0.5   239      1.3   848.4    0.00       0    51.3
 114    3:40   36.7    24    1.3   237      1.7   848.2    0.00       0    51.2
 114    3:50   36.3    25    0.5   236      1.2   848.2    0.00       0    51.0
 114    4:00   36.5    26    0.6   245      1.4   848.4    0.00       0    50.9
 114    4:10   35.8    29    0.2   245      1.1   848.4    0.00       0    50.7
 114    4:20   35.7    32    0.4   245      1.3   848.3    0.00       0    50.6
 114    4:30   35.0    26    0.0     0      0.0   848.2    0.00       0    50.4
 114    4:40   34.5    26    0.0   245      0.6   848.3    0.00       0    50.3
 114    4:50   34.8    27    0.2   245      0.7   848.4    0.00       0    50.0
 114    5:00   34.2    26    0.9   235      3.2   848.4    0.00       2    49.7
 114    5:10   32.8    26    3.0   208      3.5   848.3    0.00       4    49.5
 114    5:20   33.3    27    2.4   207      3.1   848.2    0.00      11    49.3
 114    5:30   34.7    26    0.8   207      2.0   848.1    0.00      30    49.2
 114    5:40   35.3    25    1.9   212      2.3   848.2    0.00      67    49.4
 114    5:50   36.9    24    2.2   352      4.5   848.5    0.00      95    49.7
 114    6:00   36.6    24    0.6    12      2.0   848.7    0.00     119    50.0
 114    6:10   39.2    22    0.4    11      1.8   848.9    0.00     144    50.6
 114    6:20   40.0    21    0.0     2      0.6   849.1    0.00     170    51.3
 114    6:30   40.5    22    0.3     2      1.6   849.4    0.00     196    51.8
 114    6:40   40.3    24    0.8     2      1.5   849.5    0.00     222    52.2
 114    6:50   41.3    24    1.5   356      2.2   849.7    0.00     249    52.2
 114    7:00   42.3    25    3.4   325      6.0   850.2    0.00     275    52.1
 114    7:10   43.3    26    2.9   333      4.8   850.3    0.00     302    52.3
 114    7:20   46.8    22    0.4     2      1.2   850.3    0.00     326    52.9
 114    7:30   48.4    20    1.0   182      3.4   850.7    0.00     349    53.7
 114    7:40   48.7    20    2.1   135      3.8   850.9    0.00     373    54.6
 114    7:50   49.9    18    2.0   146      4.6   850.9    0.00     397    55.3
 114    8:00   50.5    18    3.1   144      5.3   850.9    0.00     421    56.2
 114    8:10   52.2    17    2.6   152      5.3   850.5    0.00     443    56.8
 114    8:20   55.4    15    0.7   136      2.3   850.6    0.00     463    57.7
 114    8:30   57.6    14    0.8   352      4.2   850.8    0.00     481    58.5
 114    8:40   56.6    14    3.6   332      6.6   851.1    0.00     501    59.1
 114    8:50   57.3    14    3.5   354      5.8   851.2    0.00     521    59.6
 114    9:00   58.7    14    1.5   338      3.7   851.1    0.00     539    60.1
 114    9:10   60.8    13    1.7   297      4.5   851.3    0.00     557    60.8
 114    9:20   61.0    13    1.5   342      4.1   851.5    0.00     574    61.5
 114    9:30   61.8    13    2.3   326      4.2   851.6    0.00     590    62.1
 114    9:40   62.6    12    1.8   264      4.6   851.5    0.00     604    62.4
 114    9:50   63.6    12    2.2   202      4.0   851.5    0.00     618    62.6
 114   10:00   64.5    12    2.2   228      5.4   851.8    0.00     631    62.8
 114   10:10   66.5    11    1.8   186      4.8   851.8    0.00     643    62.8
 114   10:20   66.0    11    3.0   195      5.6   851.9    0.00     654    63.0
 114   10:30   67.7    11    1.8   236      4.8   852.0    0.00     663    63.2
 114   10:40   68.0    11    5.0   203     10.4   852.0    0.00     669    63.6
 114   10:50   66.6    12    5.0   174     10.7   852.0    0.00     675    64.0
 114   11:00   68.7    11    3.1    28      7.9   851.8    0.00     682    64.3
 114   11:10   69.9    11    3.6   190     10.3   851.7    0.00     686    64.6
 114   11:20   70.5    10   10.2   263     19.0   851.9    0.00     691    64.9
 114   11:30   69.9    11    7.8   252     17.4   851.8    0.00     693    65.1
 114   11:40   70.1    11    7.2   253     14.1   851.6    0.00     696    65.1
 114   11:50   70.2    11    8.2   239     14.5   851.5    0.00     694    65.2
 114   12:00   69.7    11    5.4   299     12.6   851.4    0.00     692    65.3
 114   12:10   70.1    11    4.7   319      9.2   851.2    0.00     696    65.3
 114   12:20   71.3    10    6.5   253     11.7   850.8    0.00     485    65.4
 114   12:30   71.0    11    6.2   222     11.3   850.4    0.00     700    65.5
 114   12:40   70.6    11    4.0   203     16.0   850.4    0.00     677    65.6
 114   12:50   71.5    10   10.8   246     19.5   850.4    0.00     669    65.7
 114   13:00   71.3    11    7.4   251     18.9   850.5    0.00     663    65.9
 114   13:10   71.9    10    8.8   259     19.5   850.4    0.00     654    65.9
 114   13:20   72.0    10    8.9   251     18.5   850.4    0.00     644    66.0
 114   13:30   71.5    10    4.8   199     11.2   850.2    0.00     630    66.1
 114   13:40   72.6    10    8.1   243     15.4   850.1    0.00     620    66.1
 114   13:50   72.9    10    7.2   251     15.9   850.2    0.00     606    66.3
 114   14:00   73.0    10    7.7   251     17.6   850.1    0.00     591    66.4
 114   14:10   73.0    10    8.8   217     16.7   850.1    0.00     577    66.5
 114   14:20   73.0    10   10.0   215     18.9   850.0    0.00     561    66.6
 114   14:30   73.1    10    8.9   230     18.9   849.8    0.00     540    66.7
 114   14:40   73.3    10   11.7   224     18.9   849.7    0.00     512    66.8
 114   14:50   73.1    10   11.4   232     23.2   849.6    0.00     502    66.8
 114   15:00   72.5    10    6.5   218     14.5   849.5    0.00     482    66.9
 114   15:10   73.7    10   12.2   230     19.3   849.3    0.00     435    66.9
 114   15:20   73.4    10   10.6   244     19.4   849.2    0.00     428    66.9
 114   15:30   72.7    10   14.7   197     22.9   848.9    0.00     391    67.0
 114   15:40   72.7    10   16.8   197     24.2   848.6    0.00     385    67.2
 114   15:50   72.7    10   13.7   203     21.3   848.3    0.00     366    67.3
 114   16:00   73.2     9   15.5   208     23.0   848.3    0.00     335    67.4
 114   16:10   72.8     9   16.8   203     23.8   848.1    0.00     301    67.3
 114   16:20   73.0     9   14.1   236     21.6   848.0    0.00     288    67.3
 114   16:30   72.7     9   14.1   219     24.6   847.9    0.00     267    67.3
 114   16:40   72.1    10   16.7   220     23.2   847.8    0.00     239    67.2
 114   16:50   71.8     9   16.9   219     25.9   847.8    0.00     159    67.2
 114   17:00   71.0    10   16.1   217     23.4   847.6    0.00     135    67.1
 114   17:10   71.2    10   15.5   212     23.2   847.6    0.00     144    67.0
 114   17:20   70.3    10   17.5   222     25.1   847.6    0.00      98    67.0
 114   17:30   69.8    10   19.5   211     26.4   847.4    0.00      79    66.9
 114   17:40   68.8    10   18.4   221     24.6   847.3    0.00      50    66.7
 114   17:50   68.4    10   19.2   214     26.6   847.2    0.00      44    66.5
 114   18:00   68.0     9   19.7   218     25.7   847.0    0.00      40    66.4
 114   18:10   67.5     9   18.4   216     26.9   846.8    0.00      30    66.2
 114   18:20   67.0    10   17.9   215     24.8   846.8    0.00      19    66.1
 114   18:30   66.6    10   17.9   213     23.4   846.7    0.00       9    65.8
 114   18:40   66.2    10   17.4   215     24.2   846.7    0.00       3    65.7
 114   18:50   65.7    10   16.0   215     22.3   846.8    0.00       0    65.4
 114   19:00   65.0    10   14.3   217     23.0   846.8    0.00       0    65.2
 114   19:10   64.8    10   14.4   217     19.1   846.9    0.00       0    65.1
 114   19:20   64.3    10   12.1   222     18.0   846.8    0.00       0    64.8
 114   19:30   63.9    10   10.7   223     19.1   846.8    0.00       0    64.6
 114   19:40   64.0    10   13.6   213     19.3   846.6    0.00       0    64.4
 114   19:50   63.9    10   13.5   217     19.7   846.7    0.00       0    64.3
 114   20:00   63.6    10   11.3   221     18.8   846.8    0.00       0    64.2
 114   20:10   63.5    11   13.9   225     23.2   846.8    0.00       0    64.0
 114   20:20   63.5    11   14.0   230     22.6   846.7    0.00       0    63.9
 114   20:30   63.1    11   14.3   229     23.5   846.5    0.00       0    63.8
 114   20:40   63.3    11   13.6   232     21.3   846.5    0.00       0    63.6
 114   20:50   63.5    11   15.2   228     23.5   846.5    0.00       0    63.5
 114   21:00   63.3    12   11.4   234     20.0   846.5    0.00       0    63.4
 114   21:10   63.3    12   10.5   234     20.6   846.5    0.00       0    63.3
 114   21:20   63.4    12   12.4   228     24.1   846.4    0.00       0    63.2
 114   21:30   63.1    12    9.1   240     16.5   846.4    0.00       0    63.2
 114   21:40   62.8    13    8.0   240     18.1   846.3    0.00       0    63.0
 114   21:50   62.4    13    6.4   254     16.2   846.3    0.00       0    62.9
 114   22:00   62.3    13    5.5   246     13.0   846.2    0.00       0    62.8
 114   22:10   62.5    13    7.8   235     18.3   846.0    0.00       0    62.7
 114   22:20   62.6    13   10.2   229     17.6   845.9    0.00       0    62.6
 114   22:30   62.8    13   17.3   223     26.0   845.8    0.00       0    62.5
 114   22:40   62.9    13   18.3   227     28.0   845.8    0.00       0    62.5
 114   22:50   62.8    13   15.5   224     26.2   845.7    0.00       0    62.5
 114   23:00   62.8    13   16.8   224     28.2   845.6    0.00       0    62.4
 114   23:10   63.0    13   15.9   232     28.4   845.7    0.00       0    62.4
 114   23:20   62.9    14   17.2   233     27.2   845.7    0.00       0    62.3
 114   23:30   62.9    13   20.3   226     30.6   845.6    0.00       0    62.3
 114   23:40   62.8    13   22.5   219     33.3   845.4    0.00       0    62.3

Return to St. George, Utah graphs page.


Western Regional Climate Center,wrcc@dri.edu